sensor_id;sensor_type;location;lat;lon;timestamp;pressure;altitude;pressure_sealevel;temperature;humidity
56402;BME280;42299;35.160;26.100;2023-02-14T00:00:08;102199.97;;;11.84;100.00
56402;BME280;42299;35.160;26.100;2023-02-14T00:01:30;102199.00;;;11.82;100.00
56402;BME280;42299;35.160;26.100;2023-02-14T00:02:52;102202.56;;;11.82;100.00
56402;BME280;42299;35.160;26.100;2023-02-14T00:04:17;102202.53;;;11.81;100.00
56402;BME280;42299;35.160;26.100;2023-02-14T00:05:40;102200.72;;;11.80;100.00
56402;BME280;42299;35.160;26.100;2023-02-14T00:07:01;102197.19;;;11.79;100.00
56402;BME280;42299;35.160;26.100;2023-02-14T00:08:23;102198.06;;;11.80;100.00
56402;BME280;42299;35.160;26.100;2023-02-14T00:09:45;102199.88;;;11.81;100.00
56402;BME280;42299;35.160;26.100;2023-02-14T00:11:07;102192.72;;;11.78;100.00
56402;BME280;42299;35.160;26.100;2023-02-14T00:12:28;102183.94;;;11.79;100.00
56402;BME280;42299;35.160;26.100;2023-02-14T00:13:52;102191.06;;;11.82;100.00
56402;BME280;42299;35.160;26.100;2023-02-14T00:15:32;102190.19;;;11.81;100.00
56402;BME280;42299;35.160;26.100;2023-02-14T00:16:53;102190.19;;;11.81;100.00
56402;BME280;42299;35.160;26.100;2023-02-14T00:18:15;102192.84;;;11.81;100.00
56402;BME280;42299;35.160;26.100;2023-02-14T00:19:37;102190.19;;;11.81;100.00
56402;BME280;42299;35.160;26.100;2023-02-14T00:20:59;102188.41;;;11.82;100.00
56402;BME280;42299;35.160;26.100;2023-02-14T00:22:22;102185.78;;;11.82;99.70
56402;BME280;42299;35.160;26.100;2023-02-14T00:23:44;102186.69;;;11.82;98.82
56402;BME280;42299;35.160;26.100;2023-02-14T00:25:06;102191.97;;;11.82;98.15
56402;BME280;42299;35.160;26.100;2023-02-14T00:26:28;102191.13;;;11.83;97.48
56402;BME280;42299;35.160;26.100;2023-02-14T00:27:50;102179.63;;;11.83;96.65
56402;BME280;42299;35.160;26.100;2023-02-14T00:29:17;102180.53;;;11.83;96.45
56402;BME280;42299;35.160;26.100;2023-02-14T00:30:39;102183.19;;;11.83;96.70
56402;BME280;42299;35.160;26.100;2023-02-14T00:32:02;102174.31;;;11.81;97.33
56402;BME280;42299;35.160;26.100;2023-02-14T00:33:24;102176.09;;;11.82;97.96
56402;BME280;42299;35.160;26.100;2023-02-14T00:34:46;102176.97;;;11.81;98.42
56402;BME280;42299;35.160;26.100;2023-02-14T00:36:09;102179.63;;;11.81;99.39
56402;BME280;42299;35.160;26.100;2023-02-14T00:37:31;102178.72;;;11.81;100.00
56402;BME280;42299;35.160;26.100;2023-02-14T00:38:53;102176.97;;;11.81;100.00
56402;BME280;42299;35.160;26.100;2023-02-14T00:40:14;102172.53;;;11.80;100.00
56402;BME280;42299;35.160;26.100;2023-02-14T00:41:37;102176.06;;;11.81;100.00
56402;BME280;42299;35.160;26.100;2023-02-14T00:42:59;102162.78;;;11.79;100.00
56402;BME280;42299;35.160;26.100;2023-02-14T00:44:23;102158.38;;;11.80;100.00
56402;BME280;42299;35.160;26.100;2023-02-14T00:45:46;102168.97;;;11.80;100.00
56402;BME280;42299;35.160;26.100;2023-02-14T00:47:07;102152.25;;;11.81;100.00
56402;BME280;42299;35.160;26.100;2023-02-14T00:48:29;102159.31;;;11.82;100.00
56402;BME280;42299;35.160;26.100;2023-02-14T00:49:52;102162.03;;;11.83;100.00
56402;BME280;42299;35.160;26.100;2023-02-14T00:51:14;102156.72;;;11.83;100.00
56402;BME280;42299;35.160;26.100;2023-02-14T00:52:38;102162.91;;;11.84;100.00
56402;BME280;42299;35.160;26.100;2023-02-14T00:54:00;102157.63;;;11.84;100.00
56402;BME280;42299;35.160;26.100;2023-02-14T00:55:21;102156.78;;;11.85;100.00
56402;BME280;42299;35.160;26.100;2023-02-14T00:56:43;102148.84;;;11.85;100.00
56402;BME280;42299;35.160;26.100;2023-02-14T00:58:06;102150.59;;;11.84;100.00
56402;BME280;42299;35.160;26.100;2023-02-14T00:59:28;102152.34;;;11.84;100.00
56402;BME280;42299;35.160;26.100;2023-02-14T01:00:51;102152.28;;;11.82;100.00
56402;BME280;42299;35.160;26.100;2023-02-14T01:02:14;102152.28;;;11.82;100.00
56402;BME280;42299;35.160;26.100;2023-02-14T01:03:35;102147.88;;;11.81;100.00
56402;BME280;42299;35.160;26.100;2023-02-14T01:04:58;102146.97;;;11.81;100.00
56402;BME280;42299;35.160;26.100;2023-02-14T01:06:20;102143.41;;;11.80;100.00
56402;BME280;42299;35.160;26.100;2023-02-14T01:07:43;102137.16;;;11.78;100.00
56402;BME280;42299;35.160;26.100;2023-02-14T01:09:06;102136.22;;;11.76;100.00
56402;BME280;42299;35.160;26.100;2023-02-14T01:10:27;102134.41;;;11.75;100.00
56402;BME280;42299;35.160;26.100;2023-02-14T01:11:49;102136.09;;;11.73;100.00
56402;BME280;42299;35.160;26.100;2023-02-14T01:13:12;102120.16;;;11.72;100.00
56402;BME280;42299;35.160;26.100;2023-02-14T01:14:35;102134.22;;;11.71;100.00
56402;BME280;42299;35.160;26.100;2023-02-14T01:15:58;102136.88;;;11.71;100.00
56402;BME280;42299;35.160;26.100;2023-02-14T01:17:21;102130.75;;;11.72;100.00
56402;BME280;42299;35.160;26.100;2023-02-14T01:18:43;102129.91;;;11.73;100.00
56402;BME280;42299;35.160;26.100;2023-02-14T01:20:06;102119.41;;;11.74;100.00
56402;BME280;42299;35.160;26.100;2023-02-14T01:21:30;102130.91;;;11.75;100.00
56402;BME280;42299;35.160;26.100;2023-02-14T01:22:53;102132.72;;;11.77;100.00
56402;BME280;42299;35.160;26.100;2023-02-14T01:24:14;102130.91;;;11.76;100.00
56402;BME280;42299;35.160;26.100;2023-02-14T01:25:38;102129.22;;;11.78;100.00
56402;BME280;42299;35.160;26.100;2023-02-14T01:26:59;102131.88;;;11.78;100.00
56402;BME280;42299;35.160;26.100;2023-02-14T01:28:21;102124.84;;;11.79;100.00
56402;BME280;42299;35.160;26.100;2023-02-14T01:29:44;102124.00;;;11.80;100.00
56402;BME280;42299;35.160;26.100;2023-02-14T01:31:09;102132.00;;;11.81;100.00
56402;BME280;42299;35.160;26.100;2023-02-14T01:32:32;102118.75;;;11.81;100.00
56402;BME280;42299;35.160;26.100;2023-02-14T01:33:55;102130.22;;;11.82;100.00
56402;BME280;42299;35.160;26.100;2023-02-14T01:35:16;102122.25;;;11.80;100.00
56402;BME280;42299;35.160;26.100;2023-02-14T01:36:39;102126.72;;;11.83;100.00
56402;BME280;42299;35.160;26.100;2023-02-14T01:38:04;102115.22;;;11.82;100.00
56402;BME280;42299;35.160;26.100;2023-02-14T01:39:25;102114.34;;;11.82;100.00
56402;BME280;42299;35.160;26.100;2023-02-14T01:40:47;102116.13;;;11.83;100.00
56402;BME280;42299;35.160;26.100;2023-02-14T01:42:10;102123.16;;;11.82;100.00
56402;BME280;42299;35.160;26.100;2023-02-14T01:43:48;102117.88;;;11.82;100.00
56402;BME280;42299;35.160;26.100;2023-02-14T01:45:17;102107.31;;;11.82;100.00
56402;BME280;42299;35.160;26.100;2023-02-14T01:46:42;102109.09;;;11.83;100.00
56402;BME280;42299;35.160;26.100;2023-02-14T01:48:05;102102.06;;;11.84;100.00
56402;BME280;42299;35.160;26.100;2023-02-14T01:49:29;102106.50;;;11.85;100.00
56402;BME280;42299;35.160;26.100;2023-02-14T01:50:53;102106.47;;;11.83;100.00
56402;BME280;42299;35.160;26.100;2023-02-14T01:52:19;102108.25;;;11.84;100.00
56402;BME280;42299;35.160;26.100;2023-02-14T01:53:42;102111.75;;;11.83;100.00
56402;BME280;42299;35.160;26.100;2023-02-14T01:55:07;102108.19;;;11.83;100.00
56402;BME280;42299;35.160;26.100;2023-02-14T01:56:36;102113.56;;;11.84;100.00
56402;BME280;42299;35.160;26.100;2023-02-14T01:58:01;102107.34;;;11.84;100.00
56402;BME280;42299;35.160;26.100;2023-02-14T01:59:27;102108.25;;;11.84;100.00
56402;BME280;42299;35.160;26.100;2023-02-14T02:00:52;102106.47;;;11.83;100.00
56402;BME280;42299;35.160;26.100;2023-02-14T02:02:22;102100.25;;;11.81;100.00
56402;BME280;42299;35.160;26.100;2023-02-14T02:03:48;102107.34;;;11.84;100.00
56402;BME280;42299;35.160;26.100;2023-02-14T02:05:12;102096.72;;;11.82;100.00
56402;BME280;42299;35.160;26.100;2023-02-14T02:06:37;102102.00;;;11.82;100.00
56402;BME280;42299;35.160;26.100;2023-02-14T02:08:01;102102.97;;;11.84;100.00
56402;BME280;42299;35.160;26.100;2023-02-14T02:09:25;102096.78;;;11.84;100.00
56402;BME280;42299;35.160;26.100;2023-02-14T02:10:50;102095.94;;;11.85;100.00
56402;BME280;42299;35.160;26.100;2023-02-14T02:12:13;102095.03;;;11.84;100.00
56402;BME280;42299;35.160;26.100;2023-02-14T02:13:37;102097.72;;;11.86;100.00
56402;BME280;42299;35.160;26.100;2023-02-14T02:14:59;102100.38;;;11.86;100.00
56402;BME280;42299;35.160;26.100;2023-02-14T02:16:37;102097.69;;;11.84;100.00
56402;BME280;42299;35.160;26.100;2023-02-14T02:18:10;102100.25;;;11.83;100.00
56402;BME280;42299;35.160;26.100;2023-02-14T02:22:03;102092.19;;;11.78;100.00
56402;BME280;42299;35.160;26.100;2023-02-14T02:23:55;102095.72;;;11.79;100.00
56402;BME280;42299;35.160;26.100;2023-02-14T02:25:32;102083.34;;;11.78;100.00
56402;BME280;42299;35.160;26.100;2023-02-14T02:27:33;102093.03;;;11.77;100.00
56402;BME280;42299;35.160;26.100;2023-02-14T02:29:23;102085.94;;;11.76;100.00
56402;BME280;42299;35.160;26.100;2023-02-14T02:31:18;102077.22;;;11.79;100.00
56402;BME280;42299;35.160;26.100;2023-02-14T02:35:15;102076.31;;;11.78;100.00
56402;BME280;42299;35.160;26.100;2023-02-14T02:38:41;102086.84;;;11.77;100.00
56402;BME280;42299;35.160;26.100;2023-02-14T02:40:21;102079.75;;;11.76;100.00
56402;BME280;42299;35.160;26.100;2023-02-14T02:41:59;102072.69;;;11.75;100.00
56402;BME280;42299;35.160;26.100;2023-02-14T02:43:33;102084.13;;;11.75;100.00
56402;BME280;42299;35.160;26.100;2023-02-14T02:45:07;102082.41;;;11.76;100.00
56402;BME280;42299;35.160;26.100;2023-02-14T02:46:35;102074.44;;;11.74;100.00
56402;BME280;42299;35.160;26.100;2023-02-14T02:48:15;102082.38;;;11.74;100.00
56402;BME280;42299;35.160;26.100;2023-02-14T02:49:43;102079.50;;;11.68;100.00
56402;BME280;42299;35.160;26.100;2023-02-14T02:51:32;102067.97;;;11.66;100.00
56402;BME280;42299;35.160;26.100;2023-02-14T02:53:17;102071.38;;;11.64;100.00
56402;BME280;42299;35.160;26.100;2023-02-14T02:54:44;102073.13;;;11.63;100.00
56402;BME280;42299;35.160;26.100;2023-02-14T02:56:12;102075.78;;;11.63;100.00
56402;BME280;42299;35.160;26.100;2023-02-14T02:57:54;102072.16;;;11.59;100.00
56402;BME280;42299;35.160;26.100;2023-02-14T02:59:20;102069.50;;;11.59;100.00
56402;BME280;42299;35.160;26.100;2023-02-14T03:00:50;102072.16;;;11.59;100.00
56402;BME280;42299;35.160;26.100;2023-02-14T03:02:19;102068.59;;;11.59;100.00
56402;BME280;42299;35.160;26.100;2023-02-14T03:03:46;102066.91;;;11.61;100.00
56402;BME280;42299;35.160;26.100;2023-02-14T03:05:27;102063.41;;;11.62;100.00
56402;BME280;42299;35.160;26.100;2023-02-14T03:06:51;102059.91;;;11.63;100.00
56402;BME280;42299;35.160;26.100;2023-02-14T03:08:13;102067.91;;;11.65;100.00
56402;BME280;42299;35.160;26.100;2023-02-14T03:09:53;102071.44;;;11.65;100.00
56402;BME280;42299;35.160;26.100;2023-02-14T03:11:17;102059.13;;;11.66;100.00
56402;BME280;42299;35.160;26.100;2023-02-14T03:12:52;102064.47;;;11.67;100.00
56402;BME280;42299;35.160;26.100;2023-02-14T03:14:19;102063.63;;;11.68;100.00
56402;BME280;42299;35.160;26.100;2023-02-14T03:16:04;102062.84;;;11.72;100.00
56402;BME280;42299;35.160;26.100;2023-02-14T03:17:35;102060.22;;;11.72;100.00
56402;BME280;42299;35.160;26.100;2023-02-14T03:19:20;102057.69;;;11.75;100.00
56402;BME280;42299;35.160;26.100;2023-02-14T03:20:53;102058.63;;;11.77;100.00
56402;BME280;42299;35.160;26.100;2023-02-14T03:22:21;102059.66;;;11.81;100.00
56402;BME280;42299;35.160;26.100;2023-02-14T03:23:53;102059.69;;;11.82;100.00
56402;BME280;42299;35.160;26.100;2023-02-14T03:25:26;102056.19;;;11.83;100.00
56402;BME280;42299;35.160;26.100;2023-02-14T03:26:59;102058.81;;;11.83;100.00
56402;BME280;42299;35.160;26.100;2023-02-14T03:28:30;102054.38;;;11.82;100.00
56402;BME280;42299;35.160;26.100;2023-02-14T03:29:57;102057.91;;;11.81;100.00
56402;BME280;42299;35.160;26.100;2023-02-14T03:31:26;102057.84;;;11.80;100.00
56402;BME280;42299;35.160;26.100;2023-02-14T03:32:56;102052.50;;;11.78;100.00
56402;BME280;42299;35.160;26.100;2023-02-14T03:34:23;102061.28;;;11.77;100.00
56402;BME280;42299;35.160;26.100;2023-02-14T03:35:54;102056.91;;;11.78;100.00
56402;BME280;42299;35.160;26.100;2023-02-14T03:37:28;102053.34;;;11.77;100.00
56402;BME280;42299;35.160;26.100;2023-02-14T03:38:58;102053.28;;;11.74;100.00
56402;BME280;42299;35.160;26.100;2023-02-14T03:40:26;102057.56;;;11.72;100.00
56402;BME280;42299;35.160;26.100;2023-02-14T03:41:51;102059.25;;;11.70;100.00
56402;BME280;42299;35.160;26.100;2023-02-14T03:43:18;102052.03;;;11.65;100.00
56402;BME280;42299;35.160;26.100;2023-02-14T03:44:42;102049.25;;;11.60;100.00
56402;BME280;42299;35.160;26.100;2023-02-14T03:46:09;102043.78;;;11.55;100.00
56402;BME280;42299;35.160;26.100;2023-02-14T03:47:35;102043.72;;;11.52;100.00
56402;BME280;42299;35.160;26.100;2023-02-14T03:49:04;102053.38;;;11.52;100.00
56402;BME280;42299;35.160;26.100;2023-02-14T03:50:30;102053.28;;;11.49;100.00
56402;BME280;42299;35.160;26.100;2023-02-14T03:51:56;102047.06;;;11.47;100.00
56402;BME280;42299;35.160;26.100;2023-02-14T03:53:23;102046.03;;;11.43;100.00
56402;BME280;42299;35.160;26.100;2023-02-14T03:54:47;102050.41;;;11.41;100.00
56402;BME280;42299;35.160;26.100;2023-02-14T03:56:14;102046.75;;;11.38;100.00
56402;BME280;42299;35.160;26.100;2023-02-14T03:57:45;102051.88;;;11.33;100.00
56402;BME280;42299;35.160;26.100;2023-02-14T03:59:13;102046.41;;;11.27;100.00
56402;BME280;42299;35.160;26.100;2023-02-14T04:00:39;102047.19;;;11.25;100.00
56402;BME280;42299;35.160;26.100;2023-02-14T04:02:05;102047.09;;;11.22;100.00
56402;BME280;42299;35.160;26.100;2023-02-14T04:03:29;102045.25;;;11.19;100.00
56402;BME280;42299;35.160;26.100;2023-02-14T04:04:53;102038.22;;;11.19;100.00
56402;BME280;42299;35.160;26.100;2023-02-14T04:06:20;102054.91;;;11.18;100.00
56402;BME280;42299;35.160;26.100;2023-02-14T04:07:44;102046.13;;;11.19;100.00
56402;BME280;42299;35.160;26.100;2023-02-14T04:09:08;102060.31;;;11.22;100.00
56402;BME280;42299;35.160;26.100;2023-02-14T04:10:30;102047.19;;;11.25;100.00
56402;BME280;42299;35.160;26.100;2023-02-14T04:11:52;102045.56;;;11.28;100.00
56402;BME280;42299;35.160;26.100;2023-02-14T04:13:14;102049.19;;;11.32;100.00
56402;BME280;42299;35.160;26.100;2023-02-14T04:14:37;102056.38;;;11.36;100.00
56402;BME280;42299;35.160;26.100;2023-02-14T04:15:59;102055.63;;;11.40;100.00
56402;BME280;42299;35.160;26.100;2023-02-14T04:17:20;102049.59;;;11.44;100.00
56402;BME280;42299;35.160;26.100;2023-02-14T04:18:59;102052.34;;;11.47;100.00
56402;BME280;42299;35.160;26.100;2023-02-14T04:20:39;102051.59;;;11.51;100.00
56402;BME280;42299;35.160;26.100;2023-02-14T04:22:01;102054.34;;;11.54;100.00
56402;BME280;42299;35.160;26.100;2023-02-14T04:23:23;102048.09;;;11.52;100.00
56402;BME280;42299;35.160;26.100;2023-02-14T04:24:47;102047.34;;;11.56;100.00
56402;BME280;42299;35.160;26.100;2023-02-14T04:26:09;102054.59;;;11.62;100.00
56402;BME280;42299;35.160;26.100;2023-02-14T04:27:32;102044.09;;;11.65;100.00
56402;BME280;42299;35.160;26.100;2023-02-14T04:28:53;102050.41;;;11.68;100.00
56402;BME280;42299;35.160;26.100;2023-02-14T04:30:16;102051.38;;;11.72;100.00
56402;BME280;42299;35.160;26.100;2023-02-14T04:31:37;102036.53;;;11.75;100.00
56402;BME280;42299;35.160;26.100;2023-02-14T04:33:00;102049.84;;;11.78;100.00
56402;BME280;42299;35.160;26.100;2023-02-14T04:34:22;102048.16;;;11.80;100.00
56402;BME280;42299;35.160;26.100;2023-02-14T04:35:43;102046.44;;;11.81;100.00
56402;BME280;42299;35.160;26.100;2023-02-14T04:37:06;102042.94;;;11.83;100.00
56402;BME280;42299;35.160;26.100;2023-02-14T04:38:27;102036.81;;;11.84;100.00
56402;BME280;42299;35.160;26.100;2023-02-14T04:39:51;102055.34;;;11.84;100.00
56402;BME280;42299;35.160;26.100;2023-02-14T04:41:12;102048.34;;;11.86;100.00
56402;BME280;42299;35.160;26.100;2023-02-14T04:42:34;102062.50;;;11.87;100.00
56402;BME280;42299;35.160;26.100;2023-02-14T04:43:56;102047.47;;;11.86;100.00
56402;BME280;42299;35.160;26.100;2023-02-14T04:45:18;102046.56;;;11.85;100.00
56402;BME280;42299;35.160;26.100;2023-02-14T04:46:40;102042.09;;;11.84;100.00
56402;BME280;42299;35.160;26.100;2023-02-14T04:48:02;102046.44;;;11.82;100.00
56402;BME280;42299;35.160;26.100;2023-02-14T04:49:24;102051.66;;;11.79;100.00
56402;BME280;42299;35.160;26.100;2023-02-14T04:50:50;102044.50;;;11.77;100.00
56402;BME280;42299;35.160;26.100;2023-02-14T04:52:14;102046.09;;;11.72;100.00
56402;BME280;42299;35.160;26.100;2023-02-14T04:53:35;102050.41;;;11.70;100.00
56402;BME280;42299;35.160;26.100;2023-02-14T04:55:01;102052.16;;;11.69;100.00
56402;BME280;42299;35.160;26.100;2023-02-14T04:56:22;102047.75;;;11.68;100.00
56402;BME280;42299;35.160;26.100;2023-02-14T04:57:45;102048.59;;;11.67;100.00
56402;BME280;42299;35.160;26.100;2023-02-14T04:59:08;102045.91;;;11.66;100.00
56402;BME280;42299;35.160;26.100;2023-02-14T05:00:30;102049.38;;;11.65;100.00
56402;BME280;42299;35.160;26.100;2023-02-14T05:01:53;102052.03;;;11.65;100.00
56402;BME280;42299;35.160;26.100;2023-02-14T05:03:14;102046.69;;;11.63;100.00
56402;BME280;42299;35.160;26.100;2023-02-14T05:04:36;102042.22;;;11.61;100.00
56402;BME280;42299;35.160;26.100;2023-02-14T05:05:57;102055.38;;;11.59;100.00
56402;BME280;42299;35.160;26.100;2023-02-14T05:07:20;102044.69;;;11.56;100.00
56402;BME280;42299;35.160;26.100;2023-02-14T05:08:42;102046.41;;;11.54;100.00
56402;BME280;42299;35.160;26.100;2023-02-14T05:10:06;102047.19;;;11.51;100.00
56402;BME280;42299;35.160;26.100;2023-02-14T05:11:28;102040.94;;;11.48;100.00
56402;BME280;42299;35.160;26.100;2023-02-14T05:12:51;102040.94;;;11.48;100.00
56402;BME280;42299;35.160;26.100;2023-02-14T05:14:13;102044.41;;;11.47;100.00
56402;BME280;42299;35.160;26.100;2023-02-14T05:15:37;102037.31;;;11.46;100.00
56402;BME280;42299;35.160;26.100;2023-02-14T05:16:59;102044.41;;;11.47;100.00
56402;BME280;42299;35.160;26.100;2023-02-14T05:18:21;102047.13;;;11.48;100.00
56402;BME280;42299;35.160;26.100;2023-02-14T05:19:43;102052.53;;;11.53;100.00
56402;BME280;42299;35.160;26.100;2023-02-14T05:21:05;102046.50;;;11.57;100.00
56402;BME280;42299;35.160;26.100;2023-02-14T05:22:27;102048.41;;;11.61;100.00
56402;BME280;42299;35.160;26.100;2023-02-14T05:23:50;102037.00;;;11.64;100.00
56402;BME280;42299;35.160;26.100;2023-02-14T05:25:14;102039.81;;;11.68;100.00
56402;BME280;42299;35.160;26.100;2023-02-14T05:26:36;102047.78;;;11.70;100.00
56402;BME280;42299;35.160;26.100;2023-02-14T05:27:58;102046.09;;;11.72;100.00
56402;BME280;42299;35.160;26.100;2023-02-14T05:29:20;102046.22;;;11.75;100.00
56402;BME280;42299;35.160;26.100;2023-02-14T05:30:41;102046.22;;;11.75;100.00
56402;BME280;42299;35.160;26.100;2023-02-14T05:32:04;102040.94;;;11.75;100.00
56402;BME280;42299;35.160;26.100;2023-02-14T05:33:26;102040.94;;;11.75;100.00
56402;BME280;42299;35.160;26.100;2023-02-14T05:34:48;102038.31;;;11.75;100.00
56402;BME280;42299;35.160;26.100;2023-02-14T05:36:10;102037.41;;;11.74;100.00
56402;BME280;42299;35.160;26.100;2023-02-14T05:37:32;102032.91;;;11.73;100.00
56402;BME280;42299;35.160;26.100;2023-02-14T05:38:54;102037.31;;;11.73;100.00
56402;BME280;42299;35.160;26.100;2023-02-14T05:40:18;102040.06;;;11.76;100.00
56402;BME280;42299;35.160;26.100;2023-02-14T05:41:40;102034.00;;;11.78;100.00
56402;BME280;42299;35.160;26.100;2023-02-14T05:43:03;102034.13;;;11.83;100.00
56402;BME280;42299;35.160;26.100;2023-02-14T05:44:24;102032.53;;;11.88;100.00
56402;BME280;42299;35.160;26.100;2023-02-14T05:45:46;102044.09;;;11.91;100.00
56402;BME280;42299;35.160;26.100;2023-02-14T05:47:09;102036.28;;;11.94;100.00
56402;BME280;42299;35.160;26.100;2023-02-14T05:48:31;102039.94;;;12.00;100.00
56402;BME280;42299;35.160;26.100;2023-02-14T05:49:53;102042.66;;;12.03;100.00
56402;BME280;42299;35.160;26.100;2023-02-14T05:51:15;102039.28;;;12.07;100.00
56402;BME280;42299;35.160;26.100;2023-02-14T05:52:37;102037.59;;;12.10;100.00
56402;BME280;42299;35.160;26.100;2023-02-14T05:53:59;102043.00;;;12.13;100.00
56402;BME280;42299;35.160;26.100;2023-02-14T05:55:23;102041.34;;;12.17;100.00
56402;BME280;42299;35.160;26.100;2023-02-14T05:56:46;102033.50;;;12.20;100.00
56402;BME280;42299;35.160;26.100;2023-02-14T05:58:08;102046.84;;;12.24;100.00
56402;BME280;42299;35.160;26.100;2023-02-14T05:59:29;102039.88;;;12.28;100.00
56402;BME280;42299;35.160;26.100;2023-02-14T06:00:52;102047.09;;;12.32;100.00
56402;BME280;42299;35.160;26.100;2023-02-14T06:02:14;102034.75;;;12.34;100.00
56402;BME280;42299;35.160;26.100;2023-02-14T06:03:36;102039.25;;;12.36;100.00
56402;BME280;42299;35.160;26.100;2023-02-14T06:04:59;102029.56;;;12.37;100.00
56402;BME280;42299;35.160;26.100;2023-02-14T06:06:21;102035.81;;;12.39;100.00
56402;BME280;42299;35.160;26.100;2023-02-14T06:07:43;102040.34;;;12.43;100.00
56402;BME280;42299;35.160;26.100;2023-02-14T06:09:09;102045.84;;;12.51;100.00
56402;BME280;42299;35.160;26.100;2023-02-14T06:10:33;102036.34;;;12.57;100.00
56402;BME280;42299;35.160;26.100;2023-02-14T06:11:56;102034.81;;;12.65;100.00
56402;BME280;42299;35.160;26.100;2023-02-14T06:13:18;102037.78;;;12.77;100.00
56402;BME280;42299;35.160;26.100;2023-02-14T06:14:40;102034.66;;;12.94;99.37
56402;BME280;42299;35.160;26.100;2023-02-14T06:16:05;102032.50;;;13.12;98.54
56402;BME280;42299;35.160;26.100;2023-02-14T06:17:27;102038.22;;;13.27;96.26
56402;BME280;42299;35.160;26.100;2023-02-14T06:18:48;102042.13;;;13.41;93.10
56402;BME280;42299;35.160;26.100;2023-02-14T06:20:11;102033.69;;;13.57;92.06
56402;BME280;42299;35.160;26.100;2023-02-14T06:21:33;102041.22;;;13.77;91.30
56402;BME280;42299;35.160;26.100;2023-02-14T06:22:55;102029.28;;;13.98;91.67
56402;BME280;42299;35.160;26.100;2023-02-14T06:24:18;102033.28;;;14.19;90.83
56402;BME280;42299;35.160;26.100;2023-02-14T06:25:41;102038.06;;;14.35;89.15
56402;BME280;42299;35.160;26.100;2023-02-14T06:27:04;102039.03;;;14.39;88.66
56402;BME280;42299;35.160;26.100;2023-02-14T06:28:26;102039.81;;;14.34;86.41
56402;BME280;42299;35.160;26.100;2023-02-14T06:29:48;102046.72;;;14.26;85.34
56402;BME280;42299;35.160;26.100;2023-02-14T06:31:14;102040.34;;;14.17;85.15
56402;BME280;42299;35.160;26.100;2023-02-14T06:32:37;102041.84;;;14.06;85.47
56402;BME280;42299;35.160;26.100;2023-02-14T06:33:59;102033.66;;;13.95;85.28
56402;BME280;42299;35.160;26.100;2023-02-14T06:35:22;102039.66;;;13.86;84.76
56402;BME280;42299;35.160;26.100;2023-02-14T06:36:44;102035.00;;;13.76;85.16
56402;BME280;42299;35.160;26.100;2023-02-14T06:38:05;102043.59;;;13.66;86.17
56402;BME280;42299;35.160;26.100;2023-02-14T06:39:28;102038.03;;;13.55;88.60
56402;BME280;42299;35.160;26.100;2023-02-14T06:40:51;102043.09;;;13.45;90.99
56402;BME280;42299;35.160;26.100;2023-02-14T06:42:14;102035.72;;;13.33;93.71
56402;BME280;42299;35.160;26.100;2023-02-14T06:43:36;102033.72;;;13.23;95.26
56402;BME280;42299;35.160;26.100;2023-02-14T06:44:58;102044.06;;;13.14;96.69
56402;BME280;42299;35.160;26.100;2023-02-14T06:46:22;102035.88;;;13.05;97.81
56402;BME280;42299;35.160;26.100;2023-02-14T06:47:44;102043.69;;;13.00;99.01
56402;BME280;42299;35.160;26.100;2023-02-14T06:49:08;102052.47;;;12.98;99.82
56402;BME280;42299;35.160;26.100;2023-02-14T06:50:30;102040.91;;;12.96;99.87
56402;BME280;42299;35.160;26.100;2023-02-14T06:51:53;102047.13;;;12.96;100.00
56402;BME280;42299;35.160;26.100;2023-02-14T06:53:15;102050.72;;;12.98;100.00
56402;BME280;42299;35.160;26.100;2023-02-14T06:54:37;102051.63;;;13.00;100.00
56402;BME280;42299;35.160;26.100;2023-02-14T06:56:01;102042.88;;;13.03;100.00
56402;BME280;42299;35.160;26.100;2023-02-14T06:57:24;102051.63;;;13.00;98.81
56402;BME280;42299;35.160;26.100;2023-02-14T06:58:46;102047.31;;;13.04;98.36
56402;BME280;42299;35.160;26.100;2023-02-14T07:00:09;102041.13;;;13.03;97.85
56402;BME280;42299;35.160;26.100;2023-02-14T07:01:32;102043.66;;;12.99;96.99
56402;BME280;42299;35.160;26.100;2023-02-14T07:02:55;102046.22;;;12.96;96.57
56402;BME280;42299;35.160;26.100;2023-02-14T07:04:18;102042.72;;;12.97;96.28
56402;BME280;42299;35.160;26.100;2023-02-14T07:05:40;102046.31;;;12.99;96.04
56402;BME280;42299;35.160;26.100;2023-02-14T07:07:04;102045.56;;;13.04;95.65
56402;BME280;42299;35.160;26.100;2023-02-14T07:08:27;102039.44;;;13.07;95.59
56402;BME280;42299;35.160;26.100;2023-02-14T07:09:49;102043.88;;;13.08;95.73
56402;BME280;42299;35.160;26.100;2023-02-14T07:11:13;102043.06;;;13.10;96.13
56402;BME280;42299;35.160;26.100;2023-02-14T07:12:35;102045.69;;;13.09;95.62
56402;BME280;42299;35.160;26.100;2023-02-14T07:13:59;102043.88;;;13.08;94.89
56402;BME280;42299;35.160;26.100;2023-02-14T07:15:21;102056.34;;;13.10;94.55
56402;BME280;42299;35.160;26.100;2023-02-14T07:16:43;102053.88;;;13.16;93.16
56402;BME280;42299;35.160;26.100;2023-02-14T07:18:06;102051.41;;;13.24;92.64
56402;BME280;42299;35.160;26.100;2023-02-14T07:19:30;102052.38;;;13.28;91.16
56402;BME280;42299;35.160;26.100;2023-02-14T07:20:52;102054.19;;;13.29;90.52